• Join FlightAware (Why Join?)
  • Login
  • US Flag 
07:38PM EST


 

Airport Tracker/Info


-or-


 

Live Flight TrackerFlight Track Log ✈ ABX902 ✈ 01-May-2013 ✈ KMIA - KCVG

Flight Track Log - Related Links

Times and Time Zones

All times are in EDT time to prevent confusion due to time zone crossing. See the ABX902 flight status page for this flight to view local times or setup timezone preferences in your user account.

Time Position Orientation Groundspeed Altitude Reporting Facility
EDT Latitude Longitude Course Direction KTS MPH feet Rate Location/Type
11:16PM 25.7833 -80.2856 79° East 154 177 700  Level Miami Center
11:17PM 25.7928 -80.2328 79° East 203 234 2,200 1,680 Climbing Miami Center
11:17PM 25.7994 -80.2167 65° Northeast 211 243 2,800 1,920 Climbing Miami Center
11:18PM 25.8194 -80.1667 66° East 255 293 4,200 2,160 Climbing Miami Center
11:19PM 25.8947 -80.1642 North 279 321 6,700 2,400 Climbing Miami Center
11:19PM 25.9136 -80.1622 North 277 319 7,200 2,400 Climbing Miami Center
11:20PM 25.9858 -80.1942 338° Northwest 290 334 9,700 1,920 Climbing Miami Center
11:21PM 26.0622 -80.2381 333° Northwest 300 345 11,000 1,680 Climbing Miami Center
11:22PM 26.1506 -80.2983 329° Northwest 329 379 13,100 2,340 Climbing Miami Center
11:23PM 26.2411 -80.3589 329° Northwest 360 414 15,700 2,460 Climbing Miami Center
11:24PM 26.3292 -80.4242 326° Northwest 375 432 18,100 2,340 Climbing Miami Center
11:25PM 26.4239 -80.4894 328° Northwest 394 453 20,400 1,980 Climbing Miami Center
11:26PM 26.5314 -80.5322 340° North 402 463 22,100 1,800 Climbing Miami Center
11:27PM 26.6472 -80.5686 344° North 424 488 24,100 1,740 Climbing Miami Center
11:28PM 26.7653 -80.6072 344° North 436 502 25,700 1,560 Climbing Miami Center
11:29PM 26.8853 -80.6506 342° North 436 502 27,200 1,440 Climbing Miami Center
11:30PM 27.0094 -80.6919 343° North 447 514 28,600 1,320 Climbing Miami Center
11:31PM 27.1358 -80.7333 344° North 454 522 29,900 1,380 Climbing Miami Center
11:32PM 27.2600 -80.7725 344° North 462 532 31,500 1,620 Climbing Miami Center
11:33PM 27.3861 -80.8144 344° North 462 532 33,200 1,680 Climbing Miami Center
11:34PM 27.5147 -80.8514 346° North 467 537 34,900 1,440 Climbing Miami Center
11:35PM 27.6325 -80.8931 343° North 461 531 36,200 960 Climbing Miami Center
11:36PM 27.7525 -80.9325 344° North 451 519 36,900 360 Climbing Miami Center
11:37PM 27.8703 -80.9719 344° North 446 513 37,000  Climbing Miami Center
11:39PM 28.0825 -81.0411 344° North 443 510 36,900 -60 Descending Jacksonville Center
11:40PM 28.1978 -81.0792 344° North 443 510 36,900  Level Jacksonville Center
11:41PM 28.3150 -81.1172 344° North 443 510 36,900  Level Jacksonville Center
11:42PM 28.4242 -81.1600 341° North 453 521 36,900  Level Jacksonville Center
11:43PM 28.5394 -81.1983 344° North 446 513 37,000  Climbing Jacksonville Center
11:44PM 28.6569 -81.2389 343° North 441 507 36,900  Descending Jacksonville Center
11:45PM 28.7764 -81.2772 344° North 441 507 37,000  Climbing Jacksonville Center
11:46PM 28.8958 -81.3178 343° North 441 507 36,900 -60 Descending Jacksonville Center
11:47PM 29.0172 -81.3564 344° North 441 507 36,900  Level Jacksonville Center
11:48PM 29.1347 -81.3997 342° North 441 507 36,900  Level Jacksonville Center
11:49PM 29.2667 -81.4453 343° North 441 507 37,000  Climbing Jacksonville Center
11:50PM 29.3861 -81.4864 343° North 446 513 37,000  Level Jacksonville Center
11:51PM 29.5097 -81.5275 344° North 446 513 37,000  Level Jacksonville Center
11:52PM 29.6311 -81.5689 343° North 446 513 37,000  Level Jacksonville Center
11:53PM 29.7528 -81.6103 344° North 446 513 37,000  Level Jacksonville Center
11:54PM 29.8722 -81.6519 343° North 446 513 37,000  Level Jacksonville Center
11:55PM 29.9936 -81.6933 344° North 446 513 37,000 -60 Level Jacksonville Center
11:56PM 30.1025 -81.7281 345° North 446 513 36,900 -60 Descending Jacksonville Center
11:57PM 30.2386 -81.7744 344° North 447 514 36,900  Level Jacksonville Center
11:58PM 30.3600 -81.8164 343° North 452 520 36,900  Level Jacksonville Center
11:59PM 30.4836 -81.8583 344° North 452 520 36,900  Level Jacksonville Center
12:00AM 30.5967 -81.9056 340° North 466 536 36,900  Level Jacksonville Center
12:01AM 30.7181 -81.9478 343° North 466 536 36,900  Level Jacksonville Center
12:02AM 30.8417 -81.9925 343° North 466 536 36,900  Level Jacksonville Center
12:03AM 30.9631 -82.0350 343° North 461 531 36,900  Level Jacksonville Center
12:04AM 31.0867 -82.0800 343° North 461 531 36,900  Level Jacksonville Center
12:06AM 31.3758 -82.1806 343° North 464 534 37,000  Climbing Atlanta Center
12:07AM 31.4889 -82.2197 344° North 464 534 37,000  Level Atlanta Center
12:08AM 31.6150 -82.2661 343° North 464 534 37,000  Level Atlanta Center
12:09AM 31.7447 -82.3050 346° North 464 534 37,000  Level Atlanta Center
12:10AM 31.8725 -82.3392 347° North 469 540 37,000  Level Atlanta Center
12:11AM 32.0044 -82.3733 348° North 474 545 37,000  Level Atlanta Center
12:12AM 32.1344 -82.4078 347° North 474 545 37,000  Level Atlanta Center
12:13AM 32.2622 -82.4422 347° North 474 545 37,000  Level Atlanta Center
12:14AM 32.3942 -82.4842 345° North 474 545 37,000  Level Atlanta Center
12:15AM 32.5242 -82.5164 348° North 474 545 37,000  Level Atlanta Center
12:16AM 32.6561 -82.5561 346° North 474 545 37,000  Level Atlanta Center
12:17AM 32.7881 -82.5933 347° North 474 545 37,000  Level Atlanta Center
12:18AM 32.9219 -82.6283 348° North 474 545 37,000  Level Atlanta Center
12:19AM 33.0539 -82.6658 347° North 474 545 37,000  Level Atlanta Center
12:20AM 33.1836 -82.7008 347° North 474 545 37,000  Level Atlanta Center
12:21AM 33.3322 -82.7408 347° North 481 554 37,000  Level Atlanta Center
12:23AM 33.5065 -82.7834 349° North  Level FlightAware Approximate
12:30AM 34.3020 -82.9797 348° North  Level FlightAware Approximate
12:31AM 34.4156 -83.0080 348° North  Level FlightAware Approximate
12:32AM 34.5298 -83.0371 347° North  Level FlightAware Approximate
12:33AM 34.6427 -83.0694 347° North  Level FlightAware Approximate
12:34AM 34.7556 -83.1017 347° North  Level FlightAware Approximate
12:35AM 34.8685 -83.1342 347° North  Level FlightAware Approximate
12:36AM 34.9814 -83.1667 347° North  Level FlightAware Approximate
12:37AM 35.0943 -83.1993 347° North  Level FlightAware Approximate
12:38AM 35.2072 -83.2321 347° North  Level FlightAware Approximate
12:39AM 35.3200 -83.2649 347° North  Level FlightAware Approximate
12:40AM 35.4327 -83.2987 346° North  Level FlightAware Approximate
12:40AM 35.7411 -83.4842 346° North 487 560 37,000  Level Indianapolis Center
12:41AM 35.5451 -83.3338 346° North  Level FlightAware Approximate
12:41AM 35.8533 -83.5239 344° North 476 548 37,000  Level Indianapolis Center
12:42AM 35.6576 -83.3690 346° North  Level FlightAware Approximate
12:42AM 35.9939 -83.5747 344° North 475 547 37,000  Level Indianapolis Center
12:43AM 35.7701 -83.4038 346° North  Level FlightAware Approximate
12:43AM 36.1186 -83.6197 344° North 470 541 37,000  Level Indianapolis Center
12:44AM 35.8826 -83.4386 346° North  Level FlightAware Approximate
12:44AM 36.2444 -83.6636 344° North 471 542 37,000  Level Indianapolis Center
12:45AM 35.9951 -83.4736 346° North  Level FlightAware Approximate
12:45AM 36.3700 -83.7078 344° North 471 542 37,000  Level Indianapolis Center
12:46AM 36.4964 -83.7525 344° North 472 543 37,000  Level Indianapolis Center
12:47AM 36.6172 -83.7978 343° North 477 549 37,000  Level Indianapolis Center
12:48AM 36.7447 -83.8439 344° North 474 545 37,000  Level Indianapolis Center
12:49AM 36.8728 -83.8897 344° North 476 548 37,000  Level Indianapolis Center
12:50AM 37.0000 -83.9369 343° North 476 548 37,000  Level Indianapolis Center
12:51AM 37.1256 -83.9847 343° North 471 542 37,000 -660 Level Indianapolis Center
12:52AM 37.2517 -84.0314 344° North 470 541 35,700 -2,340 Descending Indianapolis Center
12:53AM 37.3814 -84.0803 343° North 481 554 32,300 -3,120 Descending Indianapolis Center
12:54AM 37.5119 -84.1272 344° North 483 556 29,500 -2,700 Descending Indianapolis Center
12:55AM 37.6353 -84.1747 343° North 464 534 26,900 -2,160 Descending Indianapolis Center
12:56AM 37.7533 -84.2269 341° North 449 517 25,200 -1,500 Descending Indianapolis Center
12:57AM 37.8636 -84.2889 336° Northwest 432 497 23,900 -1,380 Descending Indianapolis Center
12:58AM 37.9711 -84.3497 336° Northwest 423 487 22,500 -1,380 Descending Indianapolis Center
12:59AM 38.0764 -84.4086 336° Northwest 413 475 21,200 -1,380 Descending Indianapolis Center
01:00AM 38.1800 -84.4678 336° Northwest 407 468 19,800 -1,380 Descending Indianapolis Center
01:01AM 38.2814 -84.5256 336° Northwest 398 458 18,500 -1,680 Descending Indianapolis Center
01:02AM 38.3814 -84.5828 336° Northwest 393 452 16,500 -2,220 Descending Indianapolis Center
01:03AM 38.4800 -84.6392 336° Northwest 388 447 14,100 -2,220 Descending Indianapolis Center
01:04AM 38.5750 -84.6942 336° Northwest 375 432 12,100 -1,860 Descending Indianapolis Center
01:05AM 38.6639 -84.7444 336° Northwest 360 414 10,400 -1,140 Descending Indianapolis Center
01:06AM 38.7467 -84.7917 336° Northwest 322 371 9,900 -900 Descending Indianapolis Center
01:07AM 38.8178 -84.8331 336° Northwest 284 327 8,700 -1,140 Descending Indianapolis Center
01:08AM 38.8789 -84.8703 335° Northwest 244 281 7,700 -1,020 Descending Indianapolis Center
01:09AM 38.9281 -84.8981 336° Northwest 200 230 6,700 -900 Descending Indianapolis Center
01:10AM 38.9739 -84.9267 334° Northwest 188 216 6,000 -960 Descending Indianapolis Center
01:11AM 39.0175 -84.9628 327° Northwest 187 215 4,800 -1,320 Descending Indianapolis Center
01:12AM 39.0433 -84.9225 50° Northeast 178 205 3,400 -1,140 Descending Indianapolis Center
01:12AM 39.0500 -84.8667 81° East 162 186 3,000 -480 Descending Cincinnati TRACON
01:13AM 39.0500 -84.8167 90° East 157 181 2,700 -540 Descending Cincinnati TRACON
01:14AM 39.0500 -84.7667 90° East 150 173 2,000 -720 Descending Cincinnati TRACON
01:15AM 39.0500 -84.7167 90° East 119 137 1,200 -780 Descending Cincinnati TRACON
01:17AM 39.0333 -84.6667 90° East  Level FlightAware Approximate
01:24AM 39.0488 -84.6678 90° East  Level Estimated